EW3994 Weather Reports


Display with metric or nautical units.
time (UTC)temp
F
wind
direction
speed
MPH
gust
MPH
rain 1hr
in
rain 24hr
in
rain mn
in
humidity
%
barometer
mb
20220927041604 58 224 13.0 22.0 0.02 0.34 0.12 64 1018.0
20220927040703 58 220 13.0 23.0 0.02 0.34 0.12 65 1018.0
20220927035803 56 222 12.0 22.0 0.02 0.34 0.12 65 1017.9
20220927033103 58 209 14.0 24.0 0.01 0.33 0.11 63 1018.2
20220927031303 60 226 13.0 25.0 0.00 0.32 0.10 61 1018.0
20220927030403 57 222 13.0 25.0 0.00 0.32 0.10 64 1018.2
20220927025503 58 216 14.0 25.0 0.00 0.32 0.10 59 1018.2
20220927024603 62 218 10.0 25.0 0.00 0.32 0.10 54 1018.1
20220927023703 58 217 11.0 22.0 0.00 0.32 0.10 59 1018.2
20220927021903 59 214 10.0 24.0 0.00 0.32 0.10 59 1018.2
20220927021003 58 211 11.0 20.0 0.00 0.32 0.10 58 1018.2
20220927020104 58 221 10.0 21.0 0.00 0.32 0.10 60 1018.4
20220927015203 58 216 11.0 25.0 0.00 0.32 0.10 59 1018.4
20220927013403 56 206 13.0 23.0 0.00 0.32 0.10 63 1018.5
20220927012503 57 203 11.0 26.0 0.00 0.32 0.10 59 1018.4
20220927010703 56 205 11.0 21.0 0.00 0.33 0.10 65 1018.4
20220927005803 55 220 14.0 25.0 0.00 0.33 0.10 60 1018.4
20220927004903 56 217 10.0 23.0 0.00 0.33 0.10 59 1018.3
20220927004003 56 221 11.0 18.0 0.00 0.33 0.10 62 1018.4
20220927003103 55 216 12.0 22.0 0.00 0.33 0.10 61 1018.4
20220927002203 56 216 11.0 20.0 0.00 0.33 0.10 61 1018.3
20220927000405 56 217 11.0 20.0 0.00 0.33 0.10 62 1018.4
20220926235503 55 228 11.0 23.0 0.00 0.33 0.10 62 1018.3
20220926234603 55 224 10.0 19.0 0.00 0.33 0.10 63 1018.2
20220926231003 54 199 9.0 16.0 0.02 0.33 0.10 66 1018.1
20220926230103 53 208 9.0 19.0 0.02 0.33 0.10 68 1018.1
20220926225203 53 205 8.0 14.0 0.02 0.33 0.10 70 1018.0
20220926223402 51 172 5.0 10.0 0.03 0.33 0.10 70 1017.9
20220926221603 51 213 4.0 10.0 0.02 0.31 0.09 70 1017.7
20220926220702 51 222 5.0 10.0 0.02 0.31 0.08 70 1017.6
20220926213103 50 220 5.0 7.0 0.02 0.30 0.07 69 1017.4
20220926210403 49 178 4.0 9.0 0.02 0.28 0.06 68 1017.1
20220926205503 49 185 4.0 9.0 0.02 0.29 0.06 68 1017.1
20220926204602 49 191 4.0 8.0 0.02 0.29 0.06 68 1016.9
20220926202802 49 211 7.0 13.0 0.02 0.29 0.06 68 1016.7
20220926201002 49 164 5.0 11.0 0.00 0.28 0.05 67 1016.6
20220926195202 49 167 5.0 10.0 0.00 0.28 0.04 67 1016.3
20220926194302 49 164 5.0 10.0 0.00 0.28 0.04 67 1016.2
20220926193402 49 163 4.0 8.0 0.00 0.28 0.04 67 1016.3
20220926191602 49 207 4.0 9.0 0.00 0.28 0.04 67 1015.9
20220926190702 49 184 5.0 11.0 0.00 0.28 0.04 66 1016.0
20220926185802 50 170 7.0 12.0 0.00 0.28 0.04 66 1015.9
20220926184002 50 181 7.0 16.0 0.00 0.28 0.04 66 1015.8
20220926183102 50 203 6.0 12.0 0.00 0.28 0.04 67 1015.7
20220926182202 50 210 7.0 13.0 0.00 0.28 0.04 67 1015.7
20220926175502 49 213 6.0 12.0 0.04 0.28 0.04 68 1015.7
20220926171902 50 225 8.0 14.0 0.04 0.28 0.04 67 1015.9
20220926171002 50 216 7.0 15.0 0.03 0.27 0.04 66 1015.9
20220926165202 50 210 8.0 17.0 0.00 0.24 0.00 64 1015.8
20220926162502 50 221 8.0 17.0 0.00 0.24 0.00 63 1015.8
20220926160702 50 229 9.0 18.0 0.00 0.24 0.00 62 1015.9
20220926155802 50 237 9.0 19.0 0.00 0.24 0.00 62 1016.0
20220926154002 50 237 7.0 13.0 0.00 0.24 0.00 61 1016.1
20220926153103 50 238 9.0 18.0 0.00 0.24 0.00 60 1016.2
20220926145502 50 233 8.0 11.0 0.00 0.24 0.00 63 1016.4
20220926143702 50 232 8.0 15.0 0.00 0.24 0.00 64 1016.4
20220926142802 50 227 9.0 17.0 0.00 0.24 0.24 64 1016.4
20220926141902 50 228 8.0 17.0 0.00 0.24 0.24 65 1016.5
20220926141001 50 230 8.0 15.0 0.01 0.24 0.24 66 1016.5
20220926140102 50 237 8.0 14.0 0.01 0.24 0.24 67 1016.4
20220926134302 50 240 7.0 13.0 0.01 0.24 0.24 68 1016.3
20220926133402 49 257 7.0 12.0 0.01 0.24 0.24 67 1016.4
20220926132501 50 249 7.0 13.0 0.01 0.24 0.24 68 1016.2
20220926130701 51 254 7.0 16.0 0.00 0.23 0.23 69 1016.3
20220926125801 51 241 7.0 13.0 0.00 0.23 0.23 70 1016.4
20220926124001 50 237 7.0 14.0 0.00 0.23 0.23 71 1016.5
20220926123101 50 237 5.0 10.0 0.00 0.23 0.23 70 1016.5
20220926121301 51 235 6.0 12.0 0.00 0.23 0.23 71 1016.4
20220926120402 51 231 4.0 10.0 0.00 0.23 0.23 71 1016.4
20220926114601 51 249 3.0 5.0 0.02 0.23 0.23 71 1016.5
20220926113701 51 231 2.0 5.0 0.02 0.23 0.23 71 1016.5
20220926111901 51 205 5.0 8.0 0.02 0.23 0.23 71 1016.4
20220926110101 51 201 6.0 10.0 0.04 0.23 0.23 71 1016.4
20220926101602 52 228 11.0 20.0 0.05 0.22 0.21 70 1016.2
20220926100701 53 238 13.0 22.0 0.05 0.24 0.21 70 1015.9
20220926094901 54 288 5.0 10.0 0.05 0.20 0.17 69 1015.5
20220926093101 54 272 1.0 3.0 0.15 0.20 0.17 69 1015.5
20220926092201 54 271 1.0 3.0 0.15 0.21 0.17 68 1015.6
20220926091301 54 274 1.0 3.0 0.15 0.21 0.17 68 1015.4
20220926085501 54 252 5.0 12.0 0.14 0.21 0.16 67 1015.4
20220926084601 56 224 6.0 12.0 0.06 0.13 0.08 65 1015.5
20220926083701 56 253 7.0 12.0 0.00 0.07 0.02 62 1015.3
20220926082801 57 266 8.0 13.0 0.00 0.07 0.02 61 1015.3
20220926081901 57 278 7.0 14.0 0.00 0.07 0.02 60 1015.2
20220926081001 57 269 6.0 10.0 0.00 0.07 0.02 59 1015.2
20220926080101 57 278 5.0 10.0 0.00 0.07 0.02 58 1015.2
20220926075202 57 266 8.0 13.0 0.00 0.07 0.02 59 1015.2
20220926073401 58 259 9.0 15.0 0.00 0.07 0.02 56 1015.2
20220926072501 58 247 9.0 17.0 0.00 0.07 0.02 52 1015.1
20220926071601 59 243 9.0 15.0 0.00 0.07 0.02 51 1015.0
20220926070701 59 245 8.0 17.0 0.00 0.07 0.02 49 1014.9
20220926065801 60 253 8.0 16.0 0.00 0.07 0.02 46 1015.0
20220926064000 61 238 8.0 14.0 0.00 0.08 0.02 45 1014.9
20220926063101 60 237 6.0 11.0 0.00 0.08 0.02 46 1014.9
20220926062201 60 231 6.0 13.0 0.00 0.08 0.02 46 1014.9
20220926060400 61 235 8.0 16.0 0.00 0.09 0.02 43 1014.9
20220926055500 62 239 9.0 16.0 0.00 0.09 0.02 43 1015.1
20220926054600 62 235 10.0 18.0 0.00 0.09 0.02 43 1015.2
20220926051901 63 255 10.0 17.0 0.00 0.09 0.02 45 1015.2
20220926051000 63 250 10.0 17.0 0.00 0.09 0.02 45 1015.2
20220926043400 63 251 12.0 19.0 0.00 0.09 0.02 46 1015.4